Time;durP1;ratioP1;P1;durP2;ratioP2;P2;SDS_P1;SDS_P2;PMS_P1;PMS_P2;Temp;Humidity;BMP_temperature;BMP_pressure;BME280_temperature;BME280_humidity;BME280_pressure;Samples;Min_cycle;Max_cycle;Signal;HPM_P1;HPM_P2
2022/08/05 00:00:18;;;;;;;376.23;293.13;;;;;;;;;;4995752;28;20221;-52
2022/08/05 00:02:44;;;;;;;344.73;273.27;;;;;;;;;;5000416;28;20315;-52
2022/08/05 00:05:10;;;;;;;369.75;283.65;;;;;;;;;;4991599;28;20217;-51
2022/08/05 00:07:36;;;;;;;341.58;274.25;;;;;;;;;;4995885;28;20370;-52
2022/08/05 00:10:03;;;;;;;376.70;289.98;;;;;;;;;;4999655;28;20193;-52
2022/08/05 00:12:29;;;;;;;400.10;299.40;;;;;;;;;;4989691;28;20189;-53
2022/08/05 00:14:55;;;;;;;361.40;283.17;;;;;;;;;;4994312;28;20274;-52
2022/08/05 00:17:21;;;;;;;363.35;283.00;;;;;;;;;;4991852;28;21174;-52
2022/08/05 00:19:47;;;;;;;354.10;278.48;;;;;;;;;;4994157;28;20228;-51
2022/08/05 00:22:13;;;;;;;357.30;280.15;;;;;;;;;;4990347;28;20193;-53
2022/08/05 00:24:39;;;;;;;353.90;278.30;;;;;;;;;;4996204;28;20196;-52
2022/08/05 00:27:05;;;;;;;333.42;266.02;;;;;;;;;;4993746;28;20308;-53
2022/08/05 00:29:31;;;;;;;291.60;246.23;;;;;;;;;;5000332;28;20232;-51
2022/08/05 00:31:57;;;;;;;403.75;305.27;;;;;;;;;;4994585;28;20225;-52
2022/08/05 00:34:23;;;;;;;365.38;296.45;;;;;;;;;;4995801;28;20239;-52
2022/08/05 00:36:49;;;;;;;369.63;302.58;;;;;;;;;;4993814;28;20201;-50
2022/08/05 00:39:15;;;;;;;362.58;277.42;;;;;;;;;;4990935;28;20225;-50
2022/08/05 00:41:44;;;;;;;363.73;273.35;;;;;;;;;;4996677;28;20229;-52
2022/08/05 00:44:10;;;;;;;316.77;250.48;;;;;;;;;;4994549;28;20247;-52
2022/08/05 00:46:36;;;;;;;344.13;265.48;;;;;;;;;;5003216;28;20240;-52
2022/08/05 00:49:02;;;;;;;352.65;274.90;;;;;;;;;;4993289;28;20197;-52
2022/08/05 00:51:28;;;;;;;332.45;259.20;;;;;;;;;;4992129;28;20771;-51
2022/08/05 00:53:54;;;;;;;361.08;269.40;;;;;;;;;;4993474;28;20303;-52
2022/08/05 00:56:20;;;;;;;357.25;274.20;;;;;;;;;;4990556;28;20232;-51
2022/08/05 00:58:46;;;;;;;390.52;289.67;;;;;;;;;;4997956;28;20229;-52
2022/08/05 01:01:14;;;;;;;360.48;275.42;;;;;;;;;;4991724;28;20515;-50
2022/08/05 01:03:40;;;;;;;363.40;276.83;;;;;;;;;;4997574;28;20194;-51
2022/08/05 01:06:07;;;;;;;355.33;274.73;;;;;;;;;;4997030;28;20233;-51
2022/08/05 01:08:33;;;;;;;334.63;257.30;;;;;;;;;;5000326;28;21626;-51
2022/08/05 01:11:02;;;;;;;332.45;257.90;;;;;;;;;;4999160;28;20229;-51
2022/08/05 01:13:40;;;;;;;347.80;278.80;;;;;;;;;;4998499;28;20233;-53
2022/08/05 01:16:12;;;;;;;373.95;285.23;;;;;;;;;;5001208;28;20625;-51
2022/08/05 01:18:41;;;;;;;354.17;270.48;;;;;;;;;;5000099;28;20231;-52
2022/08/05 01:21:12;;;;;;;350.73;262.70;;;;;;;;;;4999004;28;20240;-51
2022/08/05 01:23:53;;;;;;;351.25;269.20;;;;;;;;;;4998512;28;20220;-52
2022/08/05 01:26:37;;;;;;;400.30;289.33;;;;;;;;;;5000748;28;20232;-51
2022/08/05 01:29:05;;;;;;;334.13;257.23;;;;;;;;;;4998594;28;20292;-51
2022/08/05 01:31:40;;;;;;;348.60;262.67;;;;;;;;;;5003854;28;20276;-51
2022/08/05 01:34:25;;;;;;;350.42;262.73;;;;;;;;;;4996648;28;20665;-50
2022/08/05 01:36:54;;;;;;;378.92;277.00;;;;;;;;;;4999210;28;20216;-52
2022/08/05 01:39:21;;;;;;;412.48;293.90;;;;;;;;;;4998636;28;20288;-52
2022/08/05 01:41:47;;;;;;;383.20;271.63;;;;;;;;;;4999341;28;20630;-51
2022/08/05 01:44:14;;;;;;;346.50;257.00;;;;;;;;;;5000564;28;20240;-52
2022/08/05 01:46:40;;;;;;;406.00;286.40;;;;;;;;;;4996596;28;20229;-50
2022/08/05 01:49:08;;;;;;;402.60;284.70;;;;;;;;;;4998116;28;20280;-52
2022/08/05 01:51:35;;;;;;;417.45;292.63;;;;;;;;;;4994916;28;20221;-50
2022/08/05 01:54:03;;;;;;;332.13;251.77;;;;;;;;;;5002988;28;20237;-52
2022/08/05 01:56:31;;;;;;;376.33;268.17;;;;;;;;;;4996595;28;20221;-51
2022/08/05 01:58:57;;;;;;;368.70;268.52;;;;;;;;;;4999188;28;20233;-50
2022/08/05 02:01:24;;;;;;;371.88;262.90;;;;;;;;;;4998392;28;20224;-51
2022/08/05 02:03:51;;;;;;;411.88;287.23;;;;;;;;;;4995088;28;20181;-52
2022/08/05 02:06:17;;;;;;;404.00;277.38;;;;;;;;;;4999540;28;20221;-51
2022/08/05 02:08:43;;;;;;;358.33;270.95;;;;;;;;;;4996670;28;20276;-51
2022/08/05 02:11:14;;;;;;;430.00;310.33;;;;;;;;;;4994834;28;20689;-51
2022/08/05 02:13:44;;;;;;;389.80;287.55;;;;;;;;;;5000755;28;20235;-53
2022/08/05 02:16:21;;;;;;;375.60;273.52;;;;;;;;;;4995604;28;20181;-52
2022/08/05 02:18:52;;;;;;;364.23;264.38;;;;;;;;;;4998005;28;20227;-51
2022/08/05 02:21:21;;;;;;;350.65;257.65;;;;;;;;;;5000761;28;20874;-50
2022/08/05 02:23:49;;;;;;;371.77;268.60;;;;;;;;;;5000888;28;20566;-51
2022/08/05 02:26:18;;;;;;;399.55;276.20;;;;;;;;;;4992318;28;20291;-52
2022/08/05 02:28:46;;;;;;;378.73;268.65;;;;;;;;;;4998070;28;20244;-52
2022/08/05 02:31:19;;;;;;;356.40;261.10;;;;;;;;;;4998276;28;20184;-51
2022/08/05 02:33:48;;;;;;;390.50;269.92;;;;;;;;;;4996750;28;20204;-51
2022/08/05 02:36:16;;;;;;;396.05;272.50;;;;;;;;;;4992164;28;20673;-52
2022/08/05 02:38:45;;;;;;;378.20;258.67;;;;;;;;;;4999040;28;20244;-51
2022/08/05 02:41:11;;;;;;;392.10;273.92;;;;;;;;;;4998096;28;20274;-52
2022/08/05 02:43:41;;;;;;;346.25;247.27;;;;;;;;;;4999769;28;20308;-51
2022/08/05 02:46:07;;;;;;;368.45;259.33;;;;;;;;;;4997359;28;20200;-51
2022/08/05 02:48:34;;;;;;;409.73;278.10;;;;;;;;;;4998129;28;20205;-50
2022/08/05 02:51:00;;;;;;;392.30;272.50;;;;;;;;;;4996157;28;20237;-51
2022/08/05 02:53:27;;;;;;;358.42;256.27;;;;;;;;;;4996413;28;20255;-52
2022/08/05 02:55:54;;;;;;;411.45;280.58;;;;;;;;;;4992826;28;20243;-52
2022/08/05 02:58:24;;;;;;;421.17;290.25;;;;;;;;;;4992639;28;20237;-50
2022/08/05 03:00:51;;;;;;;377.73;281.92;;;;;;;;;;5000743;28;20192;-51
2022/08/05 03:03:19;;;;;;;394.27;271.65;;;;;;;;;;4998508;28;20213;-51
2022/08/05 03:05:46;;;;;;;384.00;266.88;;;;;;;;;;4997232;28;20535;-51
2022/08/05 03:08:12;;;;;;;412.65;275.38;;;;;;;;;;4995011;28;20287;-51
2022/08/05 03:10:38;;;;;;;484.63;316.88;;;;;;;;;;4985814;28;20239;-52
2022/08/05 03:13:11;;;;;;;356.15;258.98;;;;;;;;;;4996892;28;20189;-50
2022/08/05 03:15:37;;;;;;;449.13;298.77;;;;;;;;;;4997519;28;20276;-51
2022/08/05 03:18:03;;;;;;;409.98;274.17;;;;;;;;;;4994762;28;20284;-51
2022/08/05 03:20:29;;;;;;;436.60;290.58;;;;;;;;;;4994922;28;20299;-52
2022/08/05 03:22:56;;;;;;;360.73;251.27;;;;;;;;;;4995237;28;20268;-51
2022/08/05 03:25:22;;;;;;;367.80;257.23;;;;;;;;;;4999109;28;20309;-51
2022/08/05 03:27:48;;;;;;;309.50;230.90;;;;;;;;;;5000444;28;20193;-51
2022/08/05 03:30:14;;;;;;;393.35;269.83;;;;;;;;;;4994704;28;20527;-52
2022/08/05 03:32:40;;;;;;;336.90;239.60;;;;;;;;;;5001358;28;20228;-50
2022/08/05 03:35:07;;;;;;;323.08;234.90;;;;;;;;;;4995970;28;20225;-51
2022/08/05 03:37:33;;;;;;;377.80;264.85;;;;;;;;;;5000357;28;20666;-51
2022/08/05 03:40:00;;;;;;;364.08;262.75;;;;;;;;;;4999638;28;20177;-50
2022/08/05 03:42:26;;;;;;;347.38;257.08;;;;;;;;;;4994860;28;20228;-51
2022/08/05 03:44:52;;;;;;;444.88;296.60;;;;;;;;;;4997522;28;20232;-51
2022/08/05 03:47:18;;;;;;;354.98;251.52;;;;;;;;;;4993293;28;20579;-50
2022/08/05 03:49:44;;;;;;;392.33;274.85;;;;;;;;;;5006682;28;20225;-51
2022/08/05 03:52:12;;;;;;;373.83;265.55;;;;;;;;;;4995470;28;20197;-51
2022/08/05 03:55:10;;;;;;;361.95;259.25;;;;;;;;;;4999032;28;20192;-50
2022/08/05 03:57:38;;;;;;;366.30;251.82;;;;;;;;;;4981352;28;20677;-50
2022/08/05 04:00:08;;;;;;;362.25;253.18;;;;;;;;;;4992799;28;20229;-52
2022/08/05 04:02:34;;;;;;;376.13;257.77;;;;;;;;;;4998292;28;20240;-51
2022/08/05 04:05:01;;;;;;;331.38;236.35;;;;;;;;;;4999109;28;20252;-51
2022/08/05 04:07:28;;;;;;;358.70;260.77;;;;;;;;;;4996213;28;20236;-51
2022/08/05 04:09:54;;;;;;;390.23;279.05;;;;;;;;;;4996464;28;20794;-51
2022/08/05 04:12:20;;;;;;;406.17;286.42;;;;;;;;;;4997227;28;20295;-51
2022/08/05 04:14:46;;;;;;;331.63;241.63;;;;;;;;;;5000547;28;20239;-51
2022/08/05 04:17:12;;;;;;;373.52;268.60;;;;;;;;;;4997364;28;20224;-50
2022/08/05 04:19:43;;;;;;;355.00;268.88;;;;;;;;;;4993629;28;20495;-51
2022/08/05 04:22:09;;;;;;;344.63;260.23;;;;;;;;;;4995035;28;20188;-51
2022/08/05 04:24:35;;;;;;;363.48;275.65;;;;;;;;;;4995004;28;20212;-51
2022/08/05 04:27:01;;;;;;;331.85;258.98;;;;;;;;;;4995745;28;20593;-51
2022/08/05 04:29:27;;;;;;;381.23;286.35;;;;;;;;;;5001615;28;20225;-51
2022/08/05 04:31:53;;;;;;;374.60;279.92;;;;;;;;;;4995523;28;20235;-51
2022/08/05 04:34:19;;;;;;;370.08;272.17;;;;;;;;;;4995842;28;20185;-50
2022/08/05 04:36:45;;;;;;;351.98;270.98;;;;;;;;;;4994920;28;20229;-51
2022/08/05 04:39:11;;;;;;;353.80;265.77;;;;;;;;;;4993241;28;20665;-51
2022/08/05 04:41:37;;;;;;;362.48;275.63;;;;;;;;;;4993477;28;20252;-51
2022/08/05 04:44:03;;;;;;;379.25;289.85;;;;;;;;;;4992325;28;20612;-51
2022/08/05 04:46:29;;;;;;;350.42;268.85;;;;;;;;;;4992205;28;20237;-51
2022/08/05 04:48:55;;;;;;;356.83;265.10;;;;;;;;;;4997244;28;20192;-51
2022/08/05 04:51:20;;;;;;;376.20;269.30;;;;;;;;;;4994579;28;20546;-51
2022/08/05 04:53:46;;;;;;;378.30;279.13;;;;;;;;;;4994260;28;20229;-50
2022/08/05 04:56:13;;;;;;;357.42;272.77;;;;;;;;;;4996730;28;20228;-51
2022/08/05 04:58:39;;;;;;;403.80;293.13;;;;;;;;;;4998232;28;20239;-51
2022/08/05 05:01:05;;;;;;;382.63;290.20;;;;;;;;;;4996575;28;20192;-50
2022/08/05 05:03:32;;;;;;;372.95;281.15;;;;;;;;;;5004629;28;20263;-51
2022/08/05 05:05:58;;;;;;;396.98;293.52;;;;;;;;;;4999033;28;20220;-51
2022/08/05 05:08:24;;;;;;;374.05;275.83;;;;;;;;;;4997519;28;20994;-51
2022/08/05 05:10:50;;;;;;;335.92;254.82;;;;;;;;;;5002337;28;20221;-51
2022/08/05 05:13:17;;;;;;;382.63;273.55;;;;;;;;;;5004720;28;20447;-51
2022/08/05 05:15:43;;;;;;;411.10;287.98;;;;;;;;;;5006273;28;20600;-50
2022/08/05 05:18:12;;;;;;;373.23;276.23;;;;;;;;;;5000259;28;20232;-51
2022/08/05 05:20:38;;;;;;;354.15;253.57;;;;;;;;;;4999292;28;20225;-51
2022/08/05 05:23:04;;;;;;;399.35;292.33;;;;;;;;;;4999289;28;20378;-50
2022/08/05 05:25:30;;;;;;;377.85;276.38;;;;;;;;;;5000555;28;20229;-51
2022/08/05 05:27:56;;;;;;;379.58;277.45;;;;;;;;;;4995022;28;20802;-51
2022/08/05 05:30:22;;;;;;;397.80;285.63;;;;;;;;;;4993899;28;20331;-51
2022/08/05 05:32:48;;;;;;;348.42;261.52;;;;;;;;;;5001216;28;20236;-51
2022/08/05 05:35:15;;;;;;;357.52;264.80;;;;;;;;;;5000086;28;20225;-51
2022/08/05 05:37:54;;;;;;;372.10;282.38;;;;;;;;;;4997085;28;20531;-51
2022/08/05 05:40:21;;;;;;;386.13;283.90;;;;;;;;;;5000035;28;20613;-51
2022/08/05 05:42:48;;;;;;;415.77;300.45;;;;;;;;;;4999474;28;20212;-51
2022/08/05 05:45:14;;;;;;;428.58;306.75;;;;;;;;;;4994993;28;20251;-51
2022/08/05 05:47:40;;;;;;;401.13;294.05;;;;;;;;;;4998236;28;20792;-51
2022/08/05 05:50:07;;;;;;;362.27;273.38;;;;;;;;;;4993560;28;20224;-51
2022/08/05 05:52:34;;;;;;;345.75;265.38;;;;;;;;;;4992470;28;20217;-52
2022/08/05 05:55:00;;;;;;;393.38;290.55;;;;;;;;;;4994579;28;20177;-52
2022/08/05 05:57:26;;;;;;;379.23;281.45;;;;;;;;;;4992686;28;20209;-51
2022/08/05 05:59:52;;;;;;;403.17;285.05;;;;;;;;;;4979793;28;20213;-51
2022/08/05 06:02:18;;;;;;;433.77;305.95;;;;;;;;;;4976167;28;20653;-51
2022/08/05 06:04:44;;;;;;;386.75;292.58;;;;;;;;;;4992309;28;20284;-52
2022/08/05 06:07:10;;;;;;;384.15;293.58;;;;;;;;;;4996758;28;20272;-55
2022/08/05 06:09:36;;;;;;;434.60;322.45;;;;;;;;;;4973422;28;20200;-54
2022/08/05 06:12:02;;;;;;;367.75;285.15;;;;;;;;;;4991941;28;20542;-55
2022/08/05 06:14:28;;;;;;;406.17;286.98;;;;;;;;;;4998494;28;20221;-53
2022/08/05 06:16:54;;;;;;;416.40;307.05;;;;;;;;;;4997325;28;20581;-55
2022/08/05 06:19:20;;;;;;;442.58;323.35;;;;;;;;;;4996398;28;20311;-52
2022/08/05 06:21:46;;;;;;;382.80;300.10;;;;;;;;;;5007388;28;20189;-52
2022/08/05 06:24:12;;;;;;;424.00;318.00;;;;;;;;;;5000794;28;20228;-52
2022/08/05 06:26:38;;;;;;;431.45;321.92;;;;;;;;;;4997122;28;20225;-52
2022/08/05 06:29:04;;;;;;;439.20;323.27;;;;;;;;;;4996031;28;20294;-52
2022/08/05 06:31:30;;;;;;;417.23;317.27;;;;;;;;;;4999365;28;20220;-53
2022/08/05 06:33:56;;;;;;;388.75;285.48;;;;;;;;;;4997933;28;20531;-52
2022/08/05 06:36:22;;;;;;;407.85;309.13;;;;;;;;;;4998863;28;20229;-52
2022/08/05 06:38:52;;;;;;;436.33;330.33;;;;;;;;;;4993916;28;20229;-52
2022/08/05 06:41:18;;;;;;;389.35;290.02;;;;;;;;;;4996763;28;20683;-52
2022/08/05 06:43:44;;;;;;;432.27;306.58;;;;;;;;;;4994636;28;20244;-53
2022/08/05 06:46:10;;;;;;;376.17;282.13;;;;;;;;;;4988743;28;20205;-52
2022/08/05 06:48:36;;;;;;;381.98;282.63;;;;;;;;;;5004349;28;20443;-51
2022/08/05 06:51:02;;;;;;;442.55;311.88;;;;;;;;;;4993060;28;20488;-51
2022/08/05 06:53:28;;;;;;;458.05;321.80;;;;;;;;;;4982838;28;23028;-52
2022/08/05 06:55:54;;;;;;;427.77;304.73;;;;;;;;;;4995056;28;20582;-52
2022/08/05 06:58:20;;;;;;;437.98;313.48;;;;;;;;;;4995993;28;20235;-52
2022/08/05 07:00:46;;;;;;;394.83;294.67;;;;;;;;;;4991164;28;20193;-51
2022/08/05 07:03:12;;;;;;;443.63;320.58;;;;;;;;;;4980934;28;20346;-52
2022/08/05 07:05:38;;;;;;;459.38;324.35;;;;;;;;;;4993825;28;20233;-51
2022/08/05 07:08:05;;;;;;;415.45;302.95;;;;;;;;;;4990979;28;20226;-51
2022/08/05 07:10:31;;;;;;;391.75;290.38;;;;;;;;;;4999077;28;20520;-51
2022/08/05 07:18:26;;;;;;;425.67;301.08;;;;;;;;;;4989718;28;20587;-52
2022/08/05 07:20:52;;;;;;;427.80;310.00;;;;;;;;;;4986826;28;20229;-52
2022/08/05 07:23:18;;;;;;;426.50;314.35;;;;;;;;;;4992496;28;20470;-51
2022/08/05 07:25:44;;;;;;;441.05;334.55;;;;;;;;;;4996258;28;20220;-52
2022/08/05 07:28:10;;;;;;;424.00;325.65;;;;;;;;;;4998998;28;20208;-52
2022/08/05 07:30:36;;;;;;;423.98;334.17;;;;;;;;;;4996892;28;20178;-51
2022/08/05 07:33:03;;;;;;;427.45;339.60;;;;;;;;;;4997221;28;20224;-53
2022/08/05 07:35:29;;;;;;;462.17;351.52;;;;;;;;;;4994965;28;20233;-54
2022/08/05 07:37:55;;;;;;;418.90;332.77;;;;;;;;;;4993463;28;20251;-53
2022/08/05 07:40:21;;;;;;;443.13;346.98;;;;;;;;;;4995228;28;20699;-53
2022/08/05 07:42:47;;;;;;;396.05;324.15;;;;;;;;;;5002768;28;20219;-52
2022/08/05 07:45:14;;;;;;;414.08;305.48;;;;;;;;;;4992718;28;20228;-52
2022/08/05 07:47:40;;;;;;;390.63;292.05;;;;;;;;;;4997466;28;20225;-52
2022/08/05 07:50:06;;;;;;;415.45;326.00;;;;;;;;;;4998853;28;20672;-51
2022/08/05 07:52:37;;;;;;;444.45;348.38;;;;;;;;;;4997228;28;20558;-52
2022/08/05 07:55:03;;;;;;;389.45;295.83;;;;;;;;;;4999497;28;20186;-51
2022/08/05 07:57:29;;;;;;;398.75;298.35;;;;;;;;;;5005573;28;20204;-52
2022/08/05 07:59:55;;;;;;;448.50;326.40;;;;;;;;;;4998752;28;20225;-52
2022/08/05 08:02:28;;;;;;;464.85;356.25;;;;;;;;;;4987564;28;20454;-52
2022/08/05 08:04:55;;;;;;;466.63;338.02;;;;;;;;;;4986214;28;20224;-52
2022/08/05 08:07:21;;;;;;;406.77;307.45;;;;;;;;;;4987256;28;20283;-52
2022/08/05 08:09:48;;;;;;;492.20;353.90;;;;;;;;;;4990202;28;20194;-51
2022/08/05 08:12:14;;;;;;;445.77;342.15;;;;;;;;;;4974018;28;20642;-52
2022/08/05 08:14:40;;;;;;;461.33;353.45;;;;;;;;;;4983032;28;20229;-51
2022/08/05 08:17:09;;;;;;;480.92;357.05;;;;;;;;;;4985897;28;20228;-51
2022/08/05 08:19:35;;;;;;;424.08;332.15;;;;;;;;;;4989945;28;20569;-52
2022/08/05 08:22:01;;;;;;;491.75;363.85;;;;;;;;;;4981731;28;20508;-51
2022/08/05 08:24:27;;;;;;;481.75;352.58;;;;;;;;;;4975936;28;20193;-51
2022/08/05 08:26:53;;;;;;;461.35;355.88;;;;;;;;;;4981995;28;20446;-51
2022/08/05 08:29:19;;;;;;;503.38;372.25;;;;;;;;;;4987076;28;20243;-52
2022/08/05 08:31:45;;;;;;;434.27;331.60;;;;;;;;;;4987985;28;20235;-51
2022/08/05 08:34:12;;;;;;;406.38;321.73;;;;;;;;;;5001729;28;20595;-51
2022/08/05 08:36:38;;;;;;;408.60;327.92;;;;;;;;;;5005447;28;20649;-53
2022/08/05 08:39:04;;;;;;;429.90;344.83;;;;;;;;;;4996921;28;20425;-51
2022/08/05 08:41:33;;;;;;;428.42;336.23;;;;;;;;;;5002128;28;20671;-51
2022/08/05 08:43:59;;;;;;;419.83;329.77;;;;;;;;;;4993239;28;20235;-51
2022/08/05 08:46:27;;;;;;;445.48;338.00;;;;;;;;;;4987950;28;20266;-51
2022/08/05 08:48:54;;;;;;;420.15;345.42;;;;;;;;;;4997430;28;20194;-51
2022/08/05 08:51:20;;;;;;;493.42;381.50;;;;;;;;;;4986528;28;20247;-51
2022/08/05 08:53:46;;;;;;;456.45;340.30;;;;;;;;;;4989747;28;20460;-51
2022/08/05 08:56:12;;;;;;;415.35;323.10;;;;;;;;;;4994782;28;20243;-52
2022/08/05 08:58:38;;;;;;;428.25;321.83;;;;;;;;;;5000596;28;20232;-52
2022/08/05 09:01:05;;;;;;;459.33;341.05;;;;;;;;;;4996722;28;20193;-52
2022/08/05 09:03:31;;;;;;;404.52;309.38;;;;;;;;;;4994484;28;20504;-52
2022/08/05 09:05:57;;;;;;;416.23;321.40;;;;;;;;;;4995768;28;20225;-52
2022/08/05 09:08:23;;;;;;;450.25;344.08;;;;;;;;;;4994365;28;20232;-51
2022/08/05 09:10:50;;;;;;;456.27;335.65;;;;;;;;;;4993130;28;20661;-51
2022/08/05 09:13:18;;;;;;;477.77;357.63;;;;;;;;;;4981566;28;20831;-51
2022/08/05 09:15:49;;;;;;;460.33;343.90;;;;;;;;;;4986753;28;20271;-52
2022/08/05 09:18:15;;;;;;;426.40;328.30;;;;;;;;;;4987940;28;20231;-51
2022/08/05 09:20:43;;;;;;;410.17;333.33;;;;;;;;;;4994362;28;20667;-51
2022/08/05 09:23:13;;;;;;;406.95;342.90;;;;;;;;;;5005528;28;20382;-51
2022/08/05 09:25:43;;;;;;;448.67;351.85;;;;;;;;;;4998807;28;20220;-51
2022/08/05 09:28:10;;;;;;;388.15;332.88;;;;;;;;;;5005161;28;20216;-51
2022/08/05 09:30:36;;;;;;;452.88;370.55;;;;;;;;;;5008149;28;20181;-52
2022/08/05 09:33:02;;;;;;;441.30;366.80;;;;;;;;;;4999864;28;20224;-51
2022/08/05 09:35:28;;;;;;;436.27;364.48;;;;;;;;;;4997425;28;20305;-51
2022/08/05 09:37:55;;;;;;;419.33;361.75;;;;;;;;;;4997264;28;20244;-51
2022/08/05 09:40:48;;;;;;;421.55;334.35;;;;;;;;;;4998748;28;20654;-51
2022/08/05 09:43:27;;;;;;;398.08;345.70;;;;;;;;;;5000685;28;20223;-51
2022/08/05 09:45:53;;;;;;;467.60;399.30;;;;;;;;;;4999009;28;20186;-52
2022/08/05 09:48:26;;;;;;;605.65;429.05;;;;;;;;;;4990584;28;20674;-51
2022/08/05 09:50:54;;;;;;;529.90;380.27;;;;;;;;;;4981198;28;20221;-51
2022/08/05 09:53:20;;;;;;;510.20;375.60;;;;;;;;;;4974515;28;20220;-51
2022/08/05 09:55:46;;;;;;;437.65;351.77;;;;;;;;;;4986804;28;20225;-51
2022/08/05 09:58:12;;;;;;;418.55;345.02;;;;;;;;;;4996340;28;20221;-51
2022/08/05 10:00:39;;;;;;;439.13;349.77;;;;;;;;;;4990085;28;20185;-51
2022/08/05 10:03:09;;;;;;;390.73;330.13;;;;;;;;;;4993792;28;20296;-51
2022/08/05 10:05:35;;;;;;;547.33;404.45;;;;;;;;;;4987448;28;20280;-52
2022/08/05 10:08:03;;;;;;;441.25;352.67;;;;;;;;;;4980785;28;20236;-51
2022/08/05 10:10:35;;;;;;;480.30;370.23;;;;;;;;;;4984793;28;20221;-51
2022/08/05 10:13:02;;;;;;;514.33;401.95;;;;;;;;;;4981516;28;20931;-51
2022/08/05 10:15:30;;;;;;;471.55;378.83;;;;;;;;;;4979332;28;20467;-53
2022/08/05 10:18:13;;;;;;;456.42;366.58;;;;;;;;;;4988993;28;20238;-51
2022/08/05 10:20:42;;;;;;;463.60;366.50;;;;;;;;;;4984259;28;20681;-52
2022/08/05 10:23:13;;;;;;;511.73;383.95;;;;;;;;;;4978764;28;20240;-51
2022/08/05 10:25:39;;;;;;;470.92;365.20;;;;;;;;;;4978867;28;20255;-51
2022/08/05 10:28:05;;;;;;;465.10;361.33;;;;;;;;;;4990142;28;20216;-51
2022/08/05 10:30:32;;;;;;;498.75;377.67;;;;;;;;;;4989235;28;20589;-51
2022/08/05 10:32:58;;;;;;;483.60;371.92;;;;;;;;;;4981745;28;20217;-51
2022/08/05 10:35:24;;;;;;;442.45;344.95;;;;;;;;;;5003566;28;20322;-51
2022/08/05 10:37:51;;;;;;;438.00;342.73;;;;;;;;;;4997916;28;20233;-51
2022/08/05 10:40:24;;;;;;;565.85;411.08;;;;;;;;;;4989304;28;21964;-52
2022/08/05 10:42:52;;;;;;;562.72;414.73;;;;;;;;;;4988855;28;20197;-51
2022/08/05 10:45:24;;;;;;;476.40;364.38;;;;;;;;;;4982255;28;20225;-51
2022/08/05 10:47:50;;;;;;;451.05;356.02;;;;;;;;;;4992680;28;20229;-51
2022/08/05 10:50:17;;;;;;;464.67;357.95;;;;;;;;;;4995174;28;20541;-51
2022/08/05 10:52:46;;;;;;;420.75;341.23;;;;;;;;;;4987577;28;20228;-51
2022/08/05 10:55:12;;;;;;;411.67;332.65;;;;;;;;;;4992742;28;20204;-51
2022/08/05 10:57:40;;;;;;;443.90;351.02;;;;;;;;;;4987928;28;20193;-51
2022/08/05 11:00:17;;;;;;;419.30;338.83;;;;;;;;;;4997233;28;20240;-51
2022/08/05 11:02:58;;;;;;;453.92;354.98;;;;;;;;;;5009395;28;20235;-51
2022/08/05 11:05:24;;;;;;;449.08;364.60;;;;;;;;;;4995040;28;20278;-51
2022/08/05 11:07:57;;;;;;;443.55;356.05;;;;;;;;;;4993811;28;20323;-51
2022/08/05 11:10:23;;;;;;;420.73;359.35;;;;;;;;;;4995976;28;20229;-51
2022/08/05 11:12:49;;;;;;;420.95;356.15;;;;;;;;;;4995272;28;20200;-52
2022/08/05 11:15:17;;;;;;;456.92;360.05;;;;;;;;;;4982580;28;21331;-51
2022/08/05 11:17:44;;;;;;;434.83;349.70;;;;;;;;;;4982972;28;20550;-52
2022/08/05 11:20:28;;;;;;;465.30;366.17;;;;;;;;;;4992928;28;20739;-51
2022/08/05 11:22:54;;;;;;;456.02;366.33;;;;;;;;;;4991331;28;20225;-52
2022/08/05 11:25:28;;;;;;;447.75;361.70;;;;;;;;;;4987277;28;20244;-51
2022/08/05 11:27:54;;;;;;;418.88;348.48;;;;;;;;;;4993018;28;20494;-51
2022/08/05 11:30:20;;;;;;;466.45;380.65;;;;;;;;;;4991486;28;20217;-51
2022/08/05 11:32:46;;;;;;;477.60;389.75;;;;;;;;;;4989510;28;20612;-52
2022/08/05 11:35:41;;;;;;;438.55;363.88;;;;;;;;;;4989997;28;20257;-51
2022/08/05 11:38:07;;;;;;;429.27;359.48;;;;;;;;;;4998285;28;20346;-52
2022/08/05 11:40:53;;;;;;;424.52;366.27;;;;;;;;;;4996539;28;20244;-52
2022/08/05 11:43:20;;;;;;;441.17;371.92;;;;;;;;;;4972659;28;20204;-51
2022/08/05 11:45:47;;;;;;;438.63;369.23;;;;;;;;;;4998371;28;20519;-51
2022/08/05 11:48:13;;;;;;;416.05;359.15;;;;;;;;;;4993470;28;20701;-52
2022/08/05 11:50:39;;;;;;;434.55;362.67;;;;;;;;;;4998056;28;20229;-52
2022/08/05 11:53:05;;;;;;;416.45;356.73;;;;;;;;;;4994258;28;20229;-52
2022/08/05 11:55:30;;;;;;;465.88;378.15;;;;;;;;;;4994053;28;20701;-52
2022/08/05 11:57:56;;;;;;;438.77;363.73;;;;;;;;;;4991958;28;20220;-52
2022/08/05 12:00:26;;;;;;;493.60;398.17;;;;;;;;;;4979228;28;20232;-52
2022/08/05 12:02:52;;;;;;;467.15;390.48;;;;;;;;;;5024252;23;20871;-65
2022/08/05 12:05:25;;;;;;;479.05;395.27;;;;;;;;;;5024584;28;20215;-67
2022/08/05 12:07:52;;;;;;;431.60;380.58;;;;;;;;;;5035933;28;20211;-67
2022/08/05 12:10:19;;;;;;;437.13;376.95;;;;;;;;;;5019492;28;20215;-67
2022/08/05 12:12:44;;;;;;;445.73;380.25;;;;;;;;;;5040821;28;20236;-67
2022/08/05 12:15:20;;;;;;;448.13;385.27;;;;;;;;;;5033210;28;20813;-67
2022/08/05 12:17:46;;;;;;;450.67;382.00;;;;;;;;;;5018669;28;20240;-66
2022/08/05 12:20:12;;;;;;;439.85;382.02;;;;;;;;;;5039471;28;20250;-65
2022/08/05 12:22:38;;;;;;;458.35;408.23;;;;;;;;;;5038154;28;20223;-66
2022/08/05 12:25:05;;;;;;;443.45;377.85;;;;;;;;;;5041041;28;20190;-66
2022/08/05 12:27:31;;;;;;;439.73;379.92;;;;;;;;;;5036096;28;20234;-65
2022/08/05 12:30:07;;;;;;;472.17;392.70;;;;;;;;;;5034756;28;20216;-66
2022/08/05 12:32:34;;;;;;;488.33;400.40;;;;;;;;;;5037766;28;20714;-67
2022/08/05 12:35:04;;;;;;;466.13;379.85;;;;;;;;;;5038380;28;20321;-65
2022/08/05 12:37:30;;;;;;;431.63;352.42;;;;;;;;;;5042450;28;20219;-66
2022/08/05 12:39:56;;;;;;;444.83;352.83;;;;;;;;;;5038412;28;20253;-66
2022/08/05 12:42:22;;;;;;;397.88;331.20;;;;;;;;;;5040960;28;20216;-66
2022/08/05 12:44:48;;;;;;;410.98;330.83;;;;;;;;;;5033409;28;20214;-66
2022/08/05 12:47:25;;;;;;;442.58;346.60;;;;;;;;;;5040628;28;20533;-66
2022/08/05 12:49:51;;;;;;;479.35;373.70;;;;;;;;;;5033808;28;21473;-67
2022/08/05 12:52:18;;;;;;;390.27;311.92;;;;;;;;;;5040450;28;20184;-66
2022/08/05 12:54:48;;;;;;;400.48;312.85;;;;;;;;;;5039439;28;20190;-65
2022/08/05 12:57:14;;;;;;;420.17;323.52;;;;;;;;;;5034536;28;20215;-69
2022/08/05 12:59:45;;;;;;;442.58;334.92;;;;;;;;;;5027478;28;20223;-67
2022/08/05 13:02:11;;;;;;;445.17;344.10;;;;;;;;;;5036919;28;20250;-69
2022/08/05 13:04:40;;;;;;;453.08;334.90;;;;;;;;;;5029987;28;20231;-69
2022/08/05 13:07:11;;;;;;;449.88;335.27;;;;;;;;;;5036374;28;20184;-67
2022/08/05 13:09:38;;;;;;;436.73;336.52;;;;;;;;;;5033689;28;20216;-71
2022/08/05 13:12:05;;;;;;;420.73;324.55;;;;;;;;;;5018671;28;20716;-73
2022/08/05 13:14:38;;;;;;;462.45;348.70;;;;;;;;;;5014914;28;20220;-67
2022/08/05 13:17:16;;;;;;;395.67;308.35;;;;;;;;;;5032450;28;20298;-67
2022/08/05 13:19:43;;;;;;;372.10;298.40;;;;;;;;;;5034292;28;20231;-67
2022/08/05 13:22:09;;;;;;;379.50;300.33;;;;;;;;;;5044923;28;20190;-67
2022/08/05 13:24:35;;;;;;;417.25;315.80;;;;;;;;;;5037816;28;20521;-67
2022/08/05 13:27:01;;;;;;;439.95;327.70;;;;;;;;;;5044241;28;20306;-67
2022/08/05 13:29:27;;;;;;;429.95;323.50;;;;;;;;;;5039458;28;20288;-68
2022/08/05 13:31:53;;;;;;;425.45;325.80;;;;;;;;;;5044085;28;20292;-67
2022/08/05 13:34:19;;;;;;;399.17;306.85;;;;;;;;;;5043030;28;20258;-67
2022/08/05 13:36:45;;;;;;;439.83;327.42;;;;;;;;;;5039707;28;20191;-67
2022/08/05 13:39:12;;;;;;;396.70;319.02;;;;;;;;;;5038296;28;20856;-67
2022/08/05 13:41:38;;;;;;;407.67;316.77;;;;;;;;;;5041311;28;20218;-68
2022/08/05 13:44:04;;;;;;;392.05;298.13;;;;;;;;;;5040728;28;20231;-68
2022/08/05 13:46:30;;;;;;;410.70;309.88;;;;;;;;;;5036466;28;20219;-67
2022/08/05 13:48:56;;;;;;;409.33;311.42;;;;;;;;;;5043453;28;20224;-68
2022/08/05 13:51:27;;;;;;;463.80;351.45;;;;;;;;;;5034434;28;20676;-68
2022/08/05 13:53:53;;;;;;;442.13;347.15;;;;;;;;;;5038645;28;20227;-68
2022/08/05 13:56:19;;;;;;;449.13;344.65;;;;;;;;;;5039023;28;20220;-67
2022/08/05 13:58:45;;;;;;;415.90;331.15;;;;;;;;;;5038261;28;20227;-68